sensor_id;sensor_type;location;lat;lon;timestamp;P1;durP1;ratioP1;P2;durP2;ratioP2
8281;SDS011;25606;42.686;23.136;2023-01-20T00:01:35;0.60;;;0.60;;
8281;SDS011;25606;42.686;23.136;2023-01-20T00:04:02;0.60;;;0.60;;
8281;SDS011;25606;42.686;23.136;2023-01-20T00:06:30;0.50;;;0.50;;
8281;SDS011;25606;42.686;23.136;2023-01-20T00:09:00;0.60;;;0.60;;
8281;SDS011;25606;42.686;23.136;2023-01-20T00:11:29;1.83;;;0.60;;
8281;SDS011;25606;42.686;23.136;2023-01-20T00:13:57;0.63;;;0.60;;
8281;SDS011;25606;42.686;23.136;2023-01-20T00:16:25;1.23;;;0.90;;
8281;SDS011;25606;42.686;23.136;2023-01-20T00:18:52;1.17;;;0.50;;
8281;SDS011;25606;42.686;23.136;2023-01-20T00:21:20;1.40;;;0.87;;
8281;SDS011;25606;42.686;23.136;2023-01-20T00:23:48;0.60;;;0.60;;
8281;SDS011;25606;42.686;23.136;2023-01-20T00:26:16;0.50;;;0.50;;
8281;SDS011;25606;42.686;23.136;2023-01-20T00:28:45;0.47;;;0.47;;
8281;SDS011;25606;42.686;23.136;2023-01-20T00:31:13;1.10;;;0.93;;
8281;SDS011;25606;42.686;23.136;2023-01-20T00:33:41;0.47;;;0.47;;
8281;SDS011;25606;42.686;23.136;2023-01-20T00:36:08;0.33;;;0.30;;
8281;SDS011;25606;42.686;23.136;2023-01-20T00:38:36;0.40;;;0.40;;
8281;SDS011;25606;42.686;23.136;2023-01-20T00:41:03;1.67;;;1.27;;
8281;SDS011;25606;42.686;23.136;2023-01-20T00:43:31;1.10;;;0.80;;
8281;SDS011;25606;42.686;23.136;2023-01-20T00:45:59;0.67;;;0.67;;
8281;SDS011;25606;42.686;23.136;2023-01-20T00:48:27;1.00;;;0.90;;
8281;SDS011;25606;42.686;23.136;2023-01-20T00:50:54;1.03;;;0.30;;
8281;SDS011;25606;42.686;23.136;2023-01-20T00:53:21;0.53;;;0.50;;
8281;SDS011;25606;42.686;23.136;2023-01-20T00:55:49;0.20;;;0.20;;
8281;SDS011;25606;42.686;23.136;2023-01-20T00:58:16;0.30;;;0.30;;
8281;SDS011;25606;42.686;23.136;2023-01-20T01:00:45;0.30;;;0.30;;
8281;SDS011;25606;42.686;23.136;2023-01-20T01:03:14;0.40;;;0.40;;
8281;SDS011;25606;42.686;23.136;2023-01-20T01:05:41;0.30;;;0.30;;
8281;SDS011;25606;42.686;23.136;2023-01-20T01:08:09;0.40;;;0.40;;
8281;SDS011;25606;42.686;23.136;2023-01-20T01:10:37;0.40;;;0.40;;
8281;SDS011;25606;42.686;23.136;2023-01-20T01:13:05;0.40;;;0.40;;
8281;SDS011;25606;42.686;23.136;2023-01-20T01:15:32;0.53;;;0.47;;
8281;SDS011;25606;42.686;23.136;2023-01-20T01:18:00;0.30;;;0.30;;
8281;SDS011;25606;42.686;23.136;2023-01-20T01:20:29;0.43;;;0.40;;
8281;SDS011;25606;42.686;23.136;2023-01-20T01:22:56;0.93;;;0.40;;
8281;SDS011;25606;42.686;23.136;2023-01-20T01:25:24;0.43;;;0.40;;
8281;SDS011;25606;42.686;23.136;2023-01-20T01:27:51;0.87;;;0.47;;
8281;SDS011;25606;42.686;23.136;2023-01-20T01:30:18;0.73;;;0.40;;
8281;SDS011;25606;42.686;23.136;2023-01-20T01:32:46;0.40;;;0.40;;
8281;SDS011;25606;42.686;23.136;2023-01-20T01:35:13;0.60;;;0.40;;
8281;SDS011;25606;42.686;23.136;2023-01-20T01:37:42;0.30;;;0.30;;
8281;SDS011;25606;42.686;23.136;2023-01-20T01:40:09;0.40;;;0.40;;
8281;SDS011;25606;42.686;23.136;2023-01-20T01:42:37;0.30;;;0.30;;
8281;SDS011;25606;42.686;23.136;2023-01-20T01:45:16;1.90;;;0.50;;
8281;SDS011;25606;42.686;23.136;2023-01-20T01:47:45;0.30;;;0.30;;
8281;SDS011;25606;42.686;23.136;2023-01-20T01:50:14;0.50;;;0.40;;
8281;SDS011;25606;42.686;23.136;2023-01-20T01:52:45;1.83;;;0.57;;
8281;SDS011;25606;42.686;23.136;2023-01-20T01:55:14;0.40;;;0.40;;
8281;SDS011;25606;42.686;23.136;2023-01-20T01:57:43;0.60;;;0.60;;
8281;SDS011;25606;42.686;23.136;2023-01-20T02:00:11;0.73;;;0.60;;
8281;SDS011;25606;42.686;23.136;2023-01-20T02:02:39;2.67;;;0.60;;
8281;SDS011;25606;42.686;23.136;2023-01-20T02:05:07;0.83;;;0.60;;
8281;SDS011;25606;42.686;23.136;2023-01-20T02:07:35;0.40;;;0.40;;
8281;SDS011;25606;42.686;23.136;2023-01-20T02:10:05;1.40;;;1.10;;
8281;SDS011;25606;42.686;23.136;2023-01-20T02:12:32;1.70;;;1.10;;
8281;SDS011;25606;42.686;23.136;2023-01-20T02:15:00;0.60;;;0.60;;
8281;SDS011;25606;42.686;23.136;2023-01-20T02:17:29;0.57;;;0.57;;
8281;SDS011;25606;42.686;23.136;2023-01-20T02:20:13;0.80;;;0.70;;
8281;SDS011;25606;42.686;23.136;2023-01-20T02:22:45;0.67;;;0.60;;
8281;SDS011;25606;42.686;23.136;2023-01-20T02:25:19;0.50;;;0.50;;
8281;SDS011;25606;42.686;23.136;2023-01-20T02:30:53;1.07;;;0.60;;
8281;SDS011;25606;42.686;23.136;2023-01-20T02:33:24;1.13;;;0.50;;
8281;SDS011;25606;42.686;23.136;2023-01-20T02:35:55;0.40;;;0.40;;
8281;SDS011;25606;42.686;23.136;2023-01-20T02:38:40;0.53;;;0.40;;
8281;SDS011;25606;42.686;23.136;2023-01-20T02:41:09;0.70;;;0.70;;
8281;SDS011;25606;42.686;23.136;2023-01-20T02:43:39;0.40;;;0.40;;
8281;SDS011;25606;42.686;23.136;2023-01-20T02:46:10;3.17;;;0.60;;
8281;SDS011;25606;42.686;23.136;2023-01-20T02:48:42;0.73;;;0.50;;
8281;SDS011;25606;42.686;23.136;2023-01-20T02:51:11;1.27;;;0.73;;
8281;SDS011;25606;42.686;23.136;2023-01-20T02:53:40;1.40;;;0.80;;
8281;SDS011;25606;42.686;23.136;2023-01-20T02:56:09;0.60;;;0.60;;
8281;SDS011;25606;42.686;23.136;2023-01-20T02:58:38;0.70;;;0.70;;
8281;SDS011;25606;42.686;23.136;2023-01-20T03:01:07;0.87;;;0.87;;
8281;SDS011;25606;42.686;23.136;2023-01-20T03:03:37;1.20;;;0.80;;
8281;SDS011;25606;42.686;23.136;2023-01-20T03:06:07;1.03;;;1.03;;
8281;SDS011;25606;42.686;23.136;2023-01-20T03:08:36;0.80;;;0.70;;
8281;SDS011;25606;42.686;23.136;2023-01-20T03:11:06;1.30;;;0.90;;
8281;SDS011;25606;42.686;23.136;2023-01-20T03:13:36;2.00;;;0.70;;
8281;SDS011;25606;42.686;23.136;2023-01-20T03:16:06;1.73;;;0.70;;
8281;SDS011;25606;42.686;23.136;2023-01-20T03:18:34;0.67;;;0.67;;
8281;SDS011;25606;42.686;23.136;2023-01-20T03:21:03;0.70;;;0.70;;
8281;SDS011;25606;42.686;23.136;2023-01-20T03:23:32;0.67;;;0.67;;
8281;SDS011;25606;42.686;23.136;2023-01-20T03:26:02;0.60;;;0.60;;
8281;SDS011;25606;42.686;23.136;2023-01-20T03:28:30;0.90;;;0.50;;
8281;SDS011;25606;42.686;23.136;2023-01-20T03:30:58;0.53;;;0.53;;
8281;SDS011;25606;42.686;23.136;2023-01-20T03:33:26;0.53;;;0.53;;
8281;SDS011;25606;42.686;23.136;2023-01-20T03:35:53;0.70;;;0.70;;
8281;SDS011;25606;42.686;23.136;2023-01-20T03:38:21;0.73;;;0.67;;
8281;SDS011;25606;42.686;23.136;2023-01-20T03:40:52;1.50;;;0.80;;
8281;SDS011;25606;42.686;23.136;2023-01-20T03:43:21;2.47;;;1.30;;
8281;SDS011;25606;42.686;23.136;2023-01-20T03:45:53;1.47;;;1.10;;
8281;SDS011;25606;42.686;23.136;2023-01-20T03:48:23;1.70;;;0.90;;
8281;SDS011;25606;42.686;23.136;2023-01-20T03:50:54;2.00;;;0.87;;
8281;SDS011;25606;42.686;23.136;2023-01-20T03:53:25;1.40;;;1.00;;
8281;SDS011;25606;42.686;23.136;2023-01-20T03:55:57;0.77;;;0.70;;
8281;SDS011;25606;42.686;23.136;2023-01-20T03:58:27;1.13;;;0.80;;
8281;SDS011;25606;42.686;23.136;2023-01-20T04:00:55;1.90;;;1.00;;
8281;SDS011;25606;42.686;23.136;2023-01-20T04:03:24;1.17;;;0.80;;
8281;SDS011;25606;42.686;23.136;2023-01-20T04:05:52;1.53;;;1.00;;
8281;SDS011;25606;42.686;23.136;2023-01-20T04:08:21;1.43;;;0.90;;
8281;SDS011;25606;42.686;23.136;2023-01-20T04:10:50;0.80;;;0.80;;
8281;SDS011;25606;42.686;23.136;2023-01-20T04:13:20;0.97;;;0.90;;
8281;SDS011;25606;42.686;23.136;2023-01-20T04:15:47;2.27;;;1.00;;
8281;SDS011;25606;42.686;23.136;2023-01-20T04:18:16;1.63;;;0.80;;
8281;SDS011;25606;42.686;23.136;2023-01-20T04:20:43;1.77;;;0.80;;
8281;SDS011;25606;42.686;23.136;2023-01-20T04:23:13;1.67;;;0.90;;
8281;SDS011;25606;42.686;23.136;2023-01-20T04:25:42;1.00;;;0.80;;
8281;SDS011;25606;42.686;23.136;2023-01-20T04:28:10;2.57;;;1.17;;
8281;SDS011;25606;42.686;23.136;2023-01-20T04:30:39;1.93;;;1.20;;
8281;SDS011;25606;42.686;23.136;2023-01-20T04:33:06;2.87;;;1.10;;
8281;SDS011;25606;42.686;23.136;2023-01-20T04:35:33;2.60;;;0.90;;
8281;SDS011;25606;42.686;23.136;2023-01-20T04:38:01;1.93;;;1.10;;
8281;SDS011;25606;42.686;23.136;2023-01-20T04:40:28;0.80;;;0.80;;
8281;SDS011;25606;42.686;23.136;2023-01-20T04:42:55;1.43;;;0.70;;
8281;SDS011;25606;42.686;23.136;2023-01-20T04:45:23;1.53;;;0.80;;
8281;SDS011;25606;42.686;23.136;2023-01-20T04:47:51;2.13;;;1.00;;
8281;SDS011;25606;42.686;23.136;2023-01-20T04:50:19;1.67;;;0.70;;
8281;SDS011;25606;42.686;23.136;2023-01-20T04:52:46;1.97;;;0.90;;
8281;SDS011;25606;42.686;23.136;2023-01-20T04:55:14;0.93;;;0.90;;
8281;SDS011;25606;42.686;23.136;2023-01-20T04:57:41;1.80;;;1.00;;
8281;SDS011;25606;42.686;23.136;2023-01-20T05:00:09;4.03;;;1.10;;
8281;SDS011;25606;42.686;23.136;2023-01-20T05:02:42;1.80;;;0.87;;
8281;SDS011;25606;42.686;23.136;2023-01-20T05:05:11;0.70;;;0.70;;
8281;SDS011;25606;42.686;23.136;2023-01-20T05:07:38;0.57;;;0.57;;
8281;SDS011;25606;42.686;23.136;2023-01-20T05:10:06;1.30;;;0.67;;
8281;SDS011;25606;42.686;23.136;2023-01-20T05:12:33;1.17;;;0.53;;
8281;SDS011;25606;42.686;23.136;2023-01-20T05:15:01;0.60;;;0.60;;
8281;SDS011;25606;42.686;23.136;2023-01-20T05:17:29;1.33;;;0.60;;
8281;SDS011;25606;42.686;23.136;2023-01-20T05:19:56;0.50;;;0.50;;
8281;SDS011;25606;42.686;23.136;2023-01-20T05:22:25;0.80;;;0.57;;
8281;SDS011;25606;42.686;23.136;2023-01-20T05:24:52;0.83;;;0.53;;
8281;SDS011;25606;42.686;23.136;2023-01-20T05:27:20;0.40;;;0.40;;
8281;SDS011;25606;42.686;23.136;2023-01-20T05:29:47;0.50;;;0.50;;
8281;SDS011;25606;42.686;23.136;2023-01-20T05:32:14;0.60;;;0.60;;
8281;SDS011;25606;42.686;23.136;2023-01-20T05:34:41;0.67;;;0.67;;
8281;SDS011;25606;42.686;23.136;2023-01-20T05:37:09;0.80;;;0.80;;
8281;SDS011;25606;42.686;23.136;2023-01-20T05:39:38;0.80;;;0.80;;
8281;SDS011;25606;42.686;23.136;2023-01-20T05:42:05;1.33;;;0.93;;
8281;SDS011;25606;42.686;23.136;2023-01-20T05:44:32;0.70;;;0.70;;
8281;SDS011;25606;42.686;23.136;2023-01-20T05:47:00;0.80;;;0.80;;
8281;SDS011;25606;42.686;23.136;2023-01-20T05:49:27;2.93;;;1.50;;
8281;SDS011;25606;42.686;23.136;2023-01-20T05:51:54;1.53;;;1.10;;
8281;SDS011;25606;42.686;23.136;2023-01-20T05:54:22;1.27;;;1.10;;
8281;SDS011;25606;42.686;23.136;2023-01-20T05:56:51;1.20;;;1.10;;
8281;SDS011;25606;42.686;23.136;2023-01-20T05:59:18;1.10;;;1.00;;
8281;SDS011;25606;42.686;23.136;2023-01-20T06:01:46;0.97;;;0.93;;
8281;SDS011;25606;42.686;23.136;2023-01-20T06:04:13;1.37;;;1.20;;
8281;SDS011;25606;42.686;23.136;2023-01-20T06:06:40;2.07;;;1.80;;
8281;SDS011;25606;42.686;23.136;2023-01-20T06:09:08;1.27;;;1.17;;
8281;SDS011;25606;42.686;23.136;2023-01-20T06:11:35;1.70;;;1.30;;
8281;SDS011;25606;42.686;23.136;2023-01-20T06:14:04;1.40;;;1.30;;
8281;SDS011;25606;42.686;23.136;2023-01-20T06:16:31;1.20;;;1.10;;
8281;SDS011;25606;42.686;23.136;2023-01-20T06:18:59;1.17;;;1.07;;
8281;SDS011;25606;42.686;23.136;2023-01-20T06:21:26;0.90;;;0.90;;
8281;SDS011;25606;42.686;23.136;2023-01-20T06:23:53;1.73;;;1.00;;
8281;SDS011;25606;42.686;23.136;2023-01-20T06:26:21;0.90;;;0.90;;
8281;SDS011;25606;42.686;23.136;2023-01-20T06:28:48;1.20;;;1.10;;
8281;SDS011;25606;42.686;23.136;2023-01-20T06:31:17;1.30;;;1.20;;
8281;SDS011;25606;42.686;23.136;2023-01-20T06:33:44;1.33;;;1.23;;
8281;SDS011;25606;42.686;23.136;2023-01-20T06:36:12;1.30;;;1.20;;
8281;SDS011;25606;42.686;23.136;2023-01-20T06:38:41;1.10;;;0.93;;
8281;SDS011;25606;42.686;23.136;2023-01-20T06:41:12;0.70;;;0.70;;
8281;SDS011;25606;42.686;23.136;2023-01-20T06:43:40;0.60;;;0.60;;
8281;SDS011;25606;42.686;23.136;2023-01-20T06:46:09;0.70;;;0.70;;
8281;SDS011;25606;42.686;23.136;2023-01-20T06:48:38;0.93;;;0.70;;
8281;SDS011;25606;42.686;23.136;2023-01-20T06:51:06;1.10;;;0.67;;
8281;SDS011;25606;42.686;23.136;2023-01-20T06:53:33;1.27;;;1.00;;
8281;SDS011;25606;42.686;23.136;2023-01-20T06:56:01;1.30;;;1.20;;
8281;SDS011;25606;42.686;23.136;2023-01-20T06:58:29;1.70;;;1.60;;
8281;SDS011;25606;42.686;23.136;2023-01-20T07:00:57;6.23;;;3.73;;
8281;SDS011;25606;42.686;23.136;2023-01-20T07:03:30;6.10;;;3.80;;
8281;SDS011;25606;42.686;23.136;2023-01-20T07:05:59;4.97;;;4.00;;
8281;SDS011;25606;42.686;23.136;2023-01-20T07:08:27;5.27;;;4.33;;
8281;SDS011;25606;42.686;23.136;2023-01-20T07:10:54;8.23;;;5.50;;
8281;SDS011;25606;42.686;23.136;2023-01-20T07:13:22;7.00;;;5.60;;
8281;SDS011;25606;42.686;23.136;2023-01-20T07:15:49;7.90;;;5.23;;
8281;SDS011;25606;42.686;23.136;2023-01-20T07:18:16;6.13;;;5.23;;
8281;SDS011;25606;42.686;23.136;2023-01-20T07:20:44;6.57;;;5.47;;
8281;SDS011;25606;42.686;23.136;2023-01-20T07:23:12;8.37;;;6.27;;
8281;SDS011;25606;42.686;23.136;2023-01-20T07:25:40;8.40;;;6.77;;
8281;SDS011;25606;42.686;23.136;2023-01-20T07:28:07;11.30;;;8.27;;
8281;SDS011;25606;42.686;23.136;2023-01-20T07:30:34;11.43;;;8.93;;
8281;SDS011;25606;42.686;23.136;2023-01-20T07:33:01;11.90;;;8.23;;
8281;SDS011;25606;42.686;23.136;2023-01-20T07:35:30;9.33;;;7.00;;
8281;SDS011;25606;42.686;23.136;2023-01-20T07:37:57;10.90;;;7.30;;
8281;SDS011;25606;42.686;23.136;2023-01-20T07:40:26;10.60;;;7.40;;
8281;SDS011;25606;42.686;23.136;2023-01-20T07:42:53;11.40;;;7.97;;
8281;SDS011;25606;42.686;23.136;2023-01-20T07:45:20;9.23;;;7.37;;
8281;SDS011;25606;42.686;23.136;2023-01-20T07:47:47;12.07;;;7.90;;
8281;SDS011;25606;42.686;23.136;2023-01-20T07:50:15;9.17;;;6.43;;
8281;SDS011;25606;42.686;23.136;2023-01-20T07:52:42;8.63;;;7.07;;
8281;SDS011;25606;42.686;23.136;2023-01-20T07:55:09;8.37;;;6.67;;
8281;SDS011;25606;42.686;23.136;2023-01-20T07:57:38;6.00;;;5.10;;
8281;SDS011;25606;42.686;23.136;2023-01-20T08:00:06;5.03;;;4.27;;
8281;SDS011;25606;42.686;23.136;2023-01-20T08:02:35;5.43;;;4.47;;
8281;SDS011;25606;42.686;23.136;2023-01-20T08:05:03;5.53;;;4.43;;
8281;SDS011;25606;42.686;23.136;2023-01-20T08:07:30;5.37;;;4.40;;
8281;SDS011;25606;42.686;23.136;2023-01-20T08:09:58;5.20;;;3.90;;
8281;SDS011;25606;42.686;23.136;2023-01-20T08:12:26;6.47;;;4.87;;
8281;SDS011;25606;42.686;23.136;2023-01-20T08:14:55;5.50;;;4.90;;
8281;SDS011;25606;42.686;23.136;2023-01-20T08:17:23;7.43;;;4.40;;
8281;SDS011;25606;42.686;23.136;2023-01-20T08:19:50;5.33;;;3.90;;
8281;SDS011;25606;42.686;23.136;2023-01-20T08:22:17;4.47;;;4.00;;
8281;SDS011;25606;42.686;23.136;2023-01-20T08:24:44;4.83;;;3.87;;
8281;SDS011;25606;42.686;23.136;2023-01-20T08:27:12;6.53;;;3.97;;
8281;SDS011;25606;42.686;23.136;2023-01-20T08:29:39;4.40;;;4.00;;
8281;SDS011;25606;42.686;23.136;2023-01-20T08:32:08;4.10;;;3.70;;
8281;SDS011;25606;42.686;23.136;2023-01-20T08:34:35;4.37;;;3.97;;
8281;SDS011;25606;42.686;23.136;2023-01-20T08:37:02;3.87;;;3.47;;
8281;SDS011;25606;42.686;23.136;2023-01-20T08:39:29;5.57;;;3.53;;
8281;SDS011;25606;42.686;23.136;2023-01-20T08:41:57;4.70;;;3.40;;
8281;SDS011;25606;42.686;23.136;2023-01-20T08:44:24;3.80;;;3.47;;
8281;SDS011;25606;42.686;23.136;2023-01-20T08:46:51;4.50;;;3.80;;
8281;SDS011;25606;42.686;23.136;2023-01-20T08:49:24;4.67;;;4.00;;
8281;SDS011;25606;42.686;23.136;2023-01-20T08:51:51;5.17;;;4.47;;
8281;SDS011;25606;42.686;23.136;2023-01-20T08:54:20;5.13;;;4.17;;
8281;SDS011;25606;42.686;23.136;2023-01-20T08:56:48;5.57;;;4.60;;
8281;SDS011;25606;42.686;23.136;2023-01-20T08:59:16;5.97;;;5.20;;
8281;SDS011;25606;42.686;23.136;2023-01-20T09:01:43;5.60;;;5.10;;
8281;SDS011;25606;42.686;23.136;2023-01-20T09:04:11;3.67;;;3.37;;
8281;SDS011;25606;42.686;23.136;2023-01-20T09:06:41;3.73;;;3.13;;
8281;SDS011;25606;42.686;23.136;2023-01-20T09:09:09;5.00;;;3.60;;
8281;SDS011;25606;42.686;23.136;2023-01-20T09:11:37;4.60;;;3.40;;
8281;SDS011;25606;42.686;23.136;2023-01-20T09:14:04;4.10;;;3.60;;
8281;SDS011;25606;42.686;23.136;2023-01-20T09:16:31;4.43;;;3.07;;
8281;SDS011;25606;42.686;23.136;2023-01-20T09:18:59;3.83;;;3.30;;
8281;SDS011;25606;42.686;23.136;2023-01-20T09:21:30;3.87;;;3.10;;
8281;SDS011;25606;42.686;23.136;2023-01-20T09:23:58;4.63;;;2.97;;
8281;SDS011;25606;42.686;23.136;2023-01-20T09:26:26;4.00;;;3.20;;
8281;SDS011;25606;42.686;23.136;2023-01-20T09:29:02;4.13;;;2.73;;
8281;SDS011;25606;42.686;23.136;2023-01-20T09:31:34;3.20;;;2.90;;
8281;SDS011;25606;42.686;23.136;2023-01-20T09:34:01;3.70;;;3.00;;
8281;SDS011;25606;42.686;23.136;2023-01-20T09:36:28;5.07;;;2.77;;
8281;SDS011;25606;42.686;23.136;2023-01-20T09:38:56;2.53;;;2.30;;
8281;SDS011;25606;42.686;23.136;2023-01-20T09:41:43;2.40;;;2.20;;
8281;SDS011;25606;42.686;23.136;2023-01-20T09:44:42;3.50;;;3.20;;
8281;SDS011;25606;42.686;23.136;2023-01-20T09:47:17;5.07;;;3.27;;
8281;SDS011;25606;42.686;23.136;2023-01-20T09:49:49;3.53;;;2.53;;
8281;SDS011;25606;42.686;23.136;2023-01-20T09:52:39;4.40;;;3.20;;
8281;SDS011;25606;42.686;23.136;2023-01-20T09:55:25;3.10;;;2.80;;
8281;SDS011;25606;42.686;23.136;2023-01-20T09:57:55;3.13;;;2.40;;
8281;SDS011;25606;42.686;23.136;2023-01-20T10:00:25;3.53;;;2.67;;
8281;SDS011;25606;42.686;23.136;2023-01-20T10:02:55;4.40;;;2.90;;
8281;SDS011;25606;42.686;23.136;2023-01-20T10:05:26;2.40;;;2.10;;
8281;SDS011;25606;42.686;23.136;2023-01-20T10:07:57;4.37;;;2.67;;
8281;SDS011;25606;42.686;23.136;2023-01-20T10:10:28;2.83;;;2.63;;
8281;SDS011;25606;42.686;23.136;2023-01-20T10:13:01;3.20;;;2.33;;
8281;SDS011;25606;42.686;23.136;2023-01-20T10:15:29;2.27;;;1.90;;
8281;SDS011;25606;42.686;23.136;2023-01-20T10:17:59;1.90;;;1.70;;
8281;SDS011;25606;42.686;23.136;2023-01-20T10:20:30;2.57;;;1.50;;
8281;SDS011;25606;42.686;23.136;2023-01-20T10:23:00;3.37;;;1.40;;
8281;SDS011;25606;42.686;23.136;2023-01-20T10:25:30;3.50;;;1.30;;
8281;SDS011;25606;42.686;23.136;2023-01-20T10:28:02;2.80;;;1.00;;
8281;SDS011;25606;42.686;23.136;2023-01-20T10:30:31;1.53;;;1.00;;
8281;SDS011;25606;42.686;23.136;2023-01-20T10:33:01;5.90;;;1.20;;
8281;SDS011;25606;42.686;23.136;2023-01-20T10:35:30;2.90;;;1.20;;
8281;SDS011;25606;42.686;23.136;2023-01-20T10:38:01;0.97;;;0.93;;
8281;SDS011;25606;42.686;23.136;2023-01-20T10:40:31;2.37;;;1.17;;
8281;SDS011;25606;42.686;23.136;2023-01-20T10:43:05;1.47;;;1.30;;
8281;SDS011;25606;42.686;23.136;2023-01-20T10:45:37;1.63;;;1.30;;
8281;SDS011;25606;42.686;23.136;2023-01-20T10:48:07;2.17;;;1.27;;
8281;SDS011;25606;42.686;23.136;2023-01-20T10:50:40;1.70;;;1.30;;
8281;SDS011;25606;42.686;23.136;2023-01-20T10:53:29;1.57;;;1.40;;
8281;SDS011;25606;42.686;23.136;2023-01-20T10:56:06;2.43;;;1.43;;
8281;SDS011;25606;42.686;23.136;2023-01-20T10:58:37;2.23;;;1.60;;
8281;SDS011;25606;42.686;23.136;2023-01-20T11:01:06;5.23;;;1.60;;
8281;SDS011;25606;42.686;23.136;2023-01-20T11:03:34;3.07;;;1.47;;
8281;SDS011;25606;42.686;23.136;2023-01-20T11:06:02;3.50;;;1.50;;
8281;SDS011;25606;42.686;23.136;2023-01-20T11:08:29;2.27;;;2.03;;
8281;SDS011;25606;42.686;23.136;2023-01-20T11:10:57;2.50;;;1.87;;
8281;SDS011;25606;42.686;23.136;2023-01-20T11:13:25;4.67;;;2.07;;
8281;SDS011;25606;42.686;23.136;2023-01-20T11:15:55;3.47;;;2.00;;
8281;SDS011;25606;42.686;23.136;2023-01-20T11:18:24;4.03;;;1.97;;
8281;SDS011;25606;42.686;23.136;2023-01-20T11:20:53;1.63;;;1.53;;
8281;SDS011;25606;42.686;23.136;2023-01-20T11:23:21;2.83;;;1.87;;
8281;SDS011;25606;42.686;23.136;2023-01-20T11:25:54;1.47;;;1.07;;
8281;SDS011;25606;42.686;23.136;2023-01-20T11:28:22;0.87;;;0.87;;
8281;SDS011;25606;42.686;23.136;2023-01-20T11:30:50;0.90;;;0.90;;
8281;SDS011;25606;42.686;23.136;2023-01-20T11:33:20;0.80;;;0.73;;
8281;SDS011;25606;42.686;23.136;2023-01-20T11:35:58;1.73;;;0.80;;
8281;SDS011;25606;42.686;23.136;2023-01-20T11:38:25;1.63;;;0.80;;
8281;SDS011;25606;42.686;23.136;2023-01-20T11:40:54;0.73;;;0.73;;
8281;SDS011;25606;42.686;23.136;2023-01-20T11:43:29;0.77;;;0.77;;
8281;SDS011;25606;42.686;23.136;2023-01-20T11:46:15;1.23;;;0.60;;
8281;SDS011;25606;42.686;23.136;2023-01-20T11:48:47;1.10;;;1.00;;
8281;SDS011;25606;42.686;23.136;2023-01-20T11:51:19;0.90;;;0.90;;
8281;SDS011;25606;42.686;23.136;2023-01-20T11:53:47;0.60;;;0.60;;
8281;SDS011;25606;42.686;23.136;2023-01-20T11:56:15;0.63;;;0.63;;
8281;SDS011;25606;42.686;23.136;2023-01-20T11:58:50;0.60;;;0.60;;
8281;SDS011;25606;42.686;23.136;2023-01-20T12:01:21;0.60;;;0.60;;
8281;SDS011;25606;42.686;23.136;2023-01-20T12:04:03;0.60;;;0.60;;
8281;SDS011;25606;42.686;23.136;2023-01-20T12:06:35;1.13;;;1.00;;
8281;SDS011;25606;42.686;23.136;2023-01-20T12:09:05;0.70;;;0.70;;
8281;SDS011;25606;42.686;23.136;2023-01-20T12:11:48;0.83;;;0.70;;
8281;SDS011;25606;42.686;23.136;2023-01-20T12:14:17;0.77;;;0.77;;
8281;SDS011;25606;42.686;23.136;2023-01-20T12:16:47;0.70;;;0.70;;
8281;SDS011;25606;42.686;23.136;2023-01-20T12:19:17;0.60;;;0.50;;
8281;SDS011;25606;42.686;23.136;2023-01-20T12:21:46;0.40;;;0.40;;
8281;SDS011;25606;42.686;23.136;2023-01-20T12:24:15;0.40;;;0.40;;
8281;SDS011;25606;42.686;23.136;2023-01-20T12:26:44;0.47;;;0.47;;
8281;SDS011;25606;42.686;23.136;2023-01-20T12:29:13;0.40;;;0.40;;
8281;SDS011;25606;42.686;23.136;2023-01-20T12:31:43;0.40;;;0.40;;
8281;SDS011;25606;42.686;23.136;2023-01-20T12:34:13;0.30;;;0.30;;
8281;SDS011;25606;42.686;23.136;2023-01-20T12:36:49;0.30;;;0.30;;
8281;SDS011;25606;42.686;23.136;2023-01-20T12:39:30;0.40;;;0.40;;
8281;SDS011;25606;42.686;23.136;2023-01-20T12:42:08;0.40;;;0.40;;
8281;SDS011;25606;42.686;23.136;2023-01-20T12:44:41;0.40;;;0.40;;
8281;SDS011;25606;42.686;23.136;2023-01-20T12:47:14;0.30;;;0.30;;
8281;SDS011;25606;42.686;23.136;2023-01-20T12:49:48;0.40;;;0.40;;
8281;SDS011;25606;42.686;23.136;2023-01-20T12:52:31;0.40;;;0.40;;
8281;SDS011;25606;42.686;23.136;2023-01-20T12:55:10;0.30;;;0.30;;
8281;SDS011;25606;42.686;23.136;2023-01-20T12:57:46;0.40;;;0.40;;
8281;SDS011;25606;42.686;23.136;2023-01-20T13:00:21;0.40;;;0.40;;
8281;SDS011;25606;42.686;23.136;2023-01-20T13:02:54;0.40;;;0.40;;
8281;SDS011;25606;42.686;23.136;2023-01-20T13:05:37;0.37;;;0.37;;
8281;SDS011;25606;42.686;23.136;2023-01-20T13:08:14;0.40;;;0.40;;
8281;SDS011;25606;42.686;23.136;2023-01-20T13:10:54;0.40;;;0.40;;
8281;SDS011;25606;42.686;23.136;2023-01-20T13:13:31;0.83;;;0.33;;
8281;SDS011;25606;42.686;23.136;2023-01-20T13:16:06;0.43;;;0.43;;
8281;SDS011;25606;42.686;23.136;2023-01-20T13:18:38;0.30;;;0.30;;
8281;SDS011;25606;42.686;23.136;2023-01-20T13:21:10;0.30;;;0.30;;
8281;SDS011;25606;42.686;23.136;2023-01-20T13:23:41;0.30;;;0.30;;
8281;SDS011;25606;42.686;23.136;2023-01-20T13:26:09;0.40;;;0.40;;
8281;SDS011;25606;42.686;23.136;2023-01-20T13:28:36;0.30;;;0.30;;
8281;SDS011;25606;42.686;23.136;2023-01-20T13:33:46;0.30;;;0.30;;
8281;SDS011;25606;42.686;23.136;2023-01-20T13:36:14;0.40;;;0.40;;
8281;SDS011;25606;42.686;23.136;2023-01-20T13:38:45;0.40;;;0.40;;
8281;SDS011;25606;42.686;23.136;2023-01-20T13:41:45;0.50;;;0.50;;
8281;SDS011;25606;42.686;23.136;2023-01-20T13:44:23;0.40;;;0.40;;
8281;SDS011;25606;42.686;23.136;2023-01-20T13:46:51;0.40;;;0.40;;
8281;SDS011;25606;42.686;23.136;2023-01-20T13:49:20;0.40;;;0.40;;
8281;SDS011;25606;42.686;23.136;2023-01-20T13:51:47;0.30;;;0.30;;
8281;SDS011;25606;42.686;23.136;2023-01-20T13:59:49;1.20;;;0.50;;
8281;SDS011;25606;42.686;23.136;2023-01-20T14:02:17;0.60;;;0.60;;
8281;SDS011;25606;42.686;23.136;2023-01-20T14:04:45;0.70;;;0.70;;
8281;SDS011;25606;42.686;23.136;2023-01-20T14:07:20;0.43;;;0.43;;
8281;SDS011;25606;42.686;23.136;2023-01-20T14:09:51;0.60;;;0.60;;
8281;SDS011;25606;42.686;23.136;2023-01-20T14:12:19;0.50;;;0.50;;
8281;SDS011;25606;42.686;23.136;2023-01-20T14:14:46;0.70;;;0.70;;
8281;SDS011;25606;42.686;23.136;2023-01-20T14:17:18;0.60;;;0.60;;
8281;SDS011;25606;42.686;23.136;2023-01-20T14:19:46;0.60;;;0.60;;
8281;SDS011;25606;42.686;23.136;2023-01-20T14:22:17;0.50;;;0.50;;
8281;SDS011;25606;42.686;23.136;2023-01-20T14:24:45;0.50;;;0.50;;
8281;SDS011;25606;42.686;23.136;2023-01-20T14:27:14;0.50;;;0.50;;
8281;SDS011;25606;42.686;23.136;2023-01-20T14:29:43;0.67;;;0.67;;
8281;SDS011;25606;42.686;23.136;2023-01-20T14:32:19;0.80;;;0.80;;
8281;SDS011;25606;42.686;23.136;2023-01-20T14:34:48;0.60;;;0.60;;
8281;SDS011;25606;42.686;23.136;2023-01-20T14:37:21;1.60;;;0.70;;
8281;SDS011;25606;42.686;23.136;2023-01-20T14:39:49;0.50;;;0.50;;
8281;SDS011;25606;42.686;23.136;2023-01-20T14:42:19;0.60;;;0.60;;
8281;SDS011;25606;42.686;23.136;2023-01-20T14:44:47;0.80;;;0.80;;
8281;SDS011;25606;42.686;23.136;2023-01-20T14:47:15;0.60;;;0.60;;
8281;SDS011;25606;42.686;23.136;2023-01-20T14:49:45;0.70;;;0.70;;
8281;SDS011;25606;42.686;23.136;2023-01-20T14:52:18;1.67;;;0.90;;
8281;SDS011;25606;42.686;23.136;2023-01-20T14:54:47;0.87;;;0.87;;
8281;SDS011;25606;42.686;23.136;2023-01-20T14:57:19;1.10;;;1.00;;
8281;SDS011;25606;42.686;23.136;2023-01-20T14:59:47;0.90;;;0.90;;
8281;SDS011;25606;42.686;23.136;2023-01-20T15:02:26;1.03;;;0.80;;
8281;SDS011;25606;42.686;23.136;2023-01-20T15:04:55;0.90;;;0.80;;
8281;SDS011;25606;42.686;23.136;2023-01-20T15:07:23;1.10;;;0.90;;
8281;SDS011;25606;42.686;23.136;2023-01-20T15:09:53;0.73;;;0.73;;
8281;SDS011;25606;42.686;23.136;2023-01-20T15:12:31;1.20;;;1.10;;
8281;SDS011;25606;42.686;23.136;2023-01-20T15:15:06;1.50;;;1.40;;